PHDTS EHLE-EHGG
Flight info
| Callsign | PHDTS |
|---|---|
| Flight time | N/A |
| Altitude | 7000 |
| Route | GRONY STAY1/0030 GRONY |
| Aircraft | DA42/L-SY/S |
Departure
| Time | 2026-05-04 12:59 |
|---|---|
| Airport | Lelystad Airport (EHLE) |
Arrival
| Time | N/A |
|---|---|
| Airport | Groningen Airport Eelde (EHGG) |
| Time | Latitude | Longitude | Altitude | Speed | Heading |
|---|---|---|---|---|---|
| 2026-05-04 12:21 | 52.45128 | 5.51757 | -10 ft | 0 kts | 320° |
| 2026-05-04 12:51 | 52.45128 | 5.51756 | -10 ft | 0 kts | 320° |
| 2026-05-04 12:51 | 52.45138 | 5.51738 | -10 ft | 4 kts | 271° |
| 2026-05-04 12:51 | 52.45137 | 5.51695 | -10 ft | 6 kts | 319° |
| 2026-05-04 12:51 | 52.45172 | 5.51641 | -10 ft | 8 kts | 316° |
| 2026-05-04 12:52 | 52.45219 | 5.51649 | -10 ft | 10 kts | 52° |
| 2026-05-04 12:52 | 52.45268 | 5.51753 | -10 ft | 13 kts | 46° |
| 2026-05-04 12:52 | 52.45334 | 5.51872 | -10 ft | 15 kts | 47° |
| 2026-05-04 12:52 | 52.45408 | 5.52004 | -10 ft | 16 kts | 47° |
| 2026-05-04 12:53 | 52.45487 | 5.52146 | -10 ft | 17 kts | 47° |
| 2026-05-04 12:53 | 52.45563 | 5.52283 | -10 ft | 16 kts | 48° |
| 2026-05-04 12:53 | 52.45638 | 5.52416 | -10 ft | 16 kts | 47° |
| 2026-05-04 12:53 | 52.45716 | 5.52556 | -10 ft | 17 kts | 46° |
| 2026-05-04 12:54 | 52.45782 | 5.52630 | -10 ft | 9 kts | 342° |
| 2026-05-04 12:54 | 52.45802 | 5.52596 | -10 ft | 0 kts | 263° |
| 2026-05-04 12:56 | 52.45801 | 5.52575 | -10 ft | 7 kts | 275° |
| 2026-05-04 12:56 | 52.45841 | 5.52492 | -8 ft | 10 kts | 319° |
| 2026-05-04 12:57 | 52.45865 | 5.52430 | -8 ft | 0 kts | 224° |
| 2026-05-04 12:57 | 52.45799 | 5.52313 | -7 ft | 40 kts | 228° |
| 2026-05-04 12:57 | 52.45504 | 5.51784 | -8 ft | 81 kts | 230° |
| 2026-05-04 12:57 | 52.45087 | 5.51072 | 97 ft | 93 kts | 233° |
| 2026-05-04 12:58 | 52.44656 | 5.50316 | 368 ft | 88 kts | 228° |
| 2026-05-04 12:58 | 52.44284 | 5.49536 | 440 ft | 84 kts | 233° |
| 2026-05-04 12:58 | 52.43922 | 5.48752 | 418 ft | 88 kts | 229° |
| 2026-05-04 12:58 | 52.43516 | 5.47993 | 466 ft | 89 kts | 225° |
| 2026-05-04 12:59 | 52.43057 | 5.47275 | 645 ft | 91 kts | 226° |
| 2026-05-04 12:59 | 52.42628 | 5.46545 | 911 ft | 87 kts | 230° |
| 2026-05-04 12:59 | 52.42211 | 5.45786 | 1130 ft | 90 kts | 228° |
| 2026-05-04 12:59 | 52.41780 | 5.45026 | 1356 ft | 91 kts | 231° |
| 2026-05-04 13:00 | 52.41357 | 5.44271 | 1603 ft | 89 kts | 231° |
| 2026-05-04 13:00 | 52.40920 | 5.43542 | 1801 ft | 91 kts | 225° |
| 2026-05-04 13:00 | 52.40465 | 5.42836 | 1987 ft | 92 kts | 228° |
| 2026-05-04 13:00 | 52.39908 | 5.42192 | 2022 ft | 111 kts | 189° |
| 2026-05-04 13:01 | 52.39123 | 5.42634 | 2010 ft | 130 kts | 148° |
| 2026-05-04 13:01 | 52.38388 | 5.43615 | 1993 ft | 141 kts | 139° |
| 2026-05-04 13:01 | 52.37626 | 5.44691 | 1998 ft | 148 kts | 141° |
| 2026-05-04 13:01 | 52.36824 | 5.45790 | 1958 ft | 149 kts | 141° |
| 2026-05-04 13:02 | 52.36341 | 5.47144 | 2080 ft | 138 kts | 92° |
| 2026-05-04 13:02 | 52.36527 | 5.48598 | 2333 ft | 125 kts | 66° |
| 2026-05-04 13:02 | 52.36814 | 5.49846 | 2630 ft | 112 kts | 69° |
| 2026-05-04 13:02 | 52.37041 | 5.51032 | 2866 ft | 107 kts | 73° |
| 2026-05-04 13:03 | 52.37319 | 5.52192 | 2998 ft | 113 kts | 66° |
| 2026-05-04 13:03 | 52.37536 | 5.53017 | 2992 ft | 125 kts | 66° |
| 2026-05-04 13:03 | 52.38078 | 5.54773 | 3037 ft | 137 kts | 59° |
| 2026-05-04 13:03 | 52.38584 | 5.56172 | 2995 ft | 147 kts | 58° |
| 2026-05-04 13:04 | 52.38952 | 5.57132 | 2986 ft | 146 kts | 59° |
| 2026-05-04 13:04 | 52.39623 | 5.59040 | 2976 ft | 147 kts | 58° |
| 2026-05-04 13:04 | 52.40144 | 5.60483 | 2977 ft | 146 kts | 58° |
| 2026-05-04 13:04 | 52.40632 | 5.61926 | 2984 ft | 145 kts | 60° |
| 2026-05-04 13:05 | 52.40964 | 5.62898 | 2984 ft | 143 kts | 60° |
| 2026-05-04 13:05 | 52.41406 | 5.64218 | 3349 ft | 123 kts | 61° |
| 2026-05-04 13:05 | 52.41793 | 5.65402 | 3666 ft | 111 kts | 61° |
| 2026-05-04 13:05 | 52.42144 | 5.66452 | 3950 ft | 103 kts | 60° |
| 2026-05-04 13:06 | 52.42486 | 5.67473 | 4183 ft | 101 kts | 61° |
| 2026-05-04 13:06 | 52.42823 | 5.68502 | 4363 ft | 104 kts | 64° |
| 2026-05-04 13:06 | 52.43159 | 5.69548 | 4574 ft | 104 kts | 62° |
| 2026-05-04 13:06 | 52.43532 | 5.70565 | 4765 ft | 106 kts | 58° |
| 2026-05-04 13:07 | 52.43918 | 5.71622 | 4937 ft | 111 kts | 61° |
| 2026-05-04 13:07 | 52.44302 | 5.72713 | 5178 ft | 108 kts | 59° |
| 2026-05-04 13:07 | 52.44693 | 5.73771 | 5370 ft | 111 kts | 60° |
| 2026-05-04 13:07 | 52.45079 | 5.74870 | 5587 ft | 110 kts | 58° |
| 2026-05-04 13:08 | 52.45502 | 5.75935 | 5787 ft | 113 kts | 63° |
| 2026-05-04 13:08 | 52.45845 | 5.77084 | 6004 ft | 114 kts | 64° |
| 2026-05-04 13:08 | 52.46249 | 5.78311 | 6039 ft | 129 kts | 60° |
| 2026-05-04 13:08 | 52.46711 | 5.79666 | 6015 ft | 143 kts | 60° |
| 2026-05-04 13:09 | 52.47220 | 5.81123 | 6018 ft | 150 kts | 60° |
| 2026-05-04 13:09 | 52.47756 | 5.82646 | 6011 ft | 154 kts | 52° |
| 2026-05-04 13:09 | 52.48619 | 5.83575 | 6016 ft | 151 kts | 10° |
| 2026-05-04 13:09 | 52.49647 | 5.83656 | 6015 ft | 145 kts | 359° |
| 2026-05-04 13:10 | 52.50641 | 5.83634 | 6013 ft | 142 kts | 358° |
| 2026-05-04 13:10 | 52.51622 | 5.83619 | 5994 ft | 141 kts | 357° |
| 2026-05-04 13:10 | 52.52608 | 5.83615 | 5954 ft | 142 kts | 356° |
| 2026-05-04 13:10 | 52.53593 | 5.83557 | 5955 ft | 141 kts | 355° |
| 2026-05-04 13:11 | 52.54570 | 5.83481 | 5939 ft | 141 kts | 358° |
| 2026-05-04 13:11 | 52.55539 | 5.83797 | 5900 ft | 144 kts | 14° |
| 2026-05-04 13:11 | 52.56489 | 5.84275 | 5912 ft | 142 kts | 16° |
| 2026-05-04 13:11 | 52.57420 | 5.84736 | 5889 ft | 143 kts | 15° |
| 2026-05-04 13:12 | 52.58377 | 5.85173 | 5860 ft | 143 kts | 13° |
| 2026-05-04 13:12 | 52.59328 | 5.85616 | 5849 ft | 142 kts | 15° |
| 2026-05-04 13:12 | 52.60282 | 5.86046 | 5832 ft | 142 kts | 14° |
| 2026-05-04 13:12 | 52.61211 | 5.86484 | 5896 ft | 137 kts | 14° |
| 2026-05-04 13:13 | 52.62115 | 5.86907 | 5958 ft | 135 kts | 14° |
| 2026-05-04 13:13 | 52.63012 | 5.87327 | 5977 ft | 134 kts | 13° |
| 2026-05-04 13:13 | 52.63915 | 5.87715 | 5991 ft | 134 kts | 11° |
| 2026-05-04 13:13 | 52.64827 | 5.88032 | 6001 ft | 134 kts | 11° |
| 2026-05-04 13:14 | 52.65755 | 5.88283 | 6020 ft | 138 kts | 6° |
| 2026-05-04 13:14 | 52.66718 | 5.88490 | 6021 ft | 140 kts | 5° |
| 2026-05-04 13:14 | 52.67700 | 5.88710 | 5996 ft | 146 kts | 4° |
| 2026-05-04 13:14 | 52.68726 | 5.88903 | 6116 ft | 147 kts | 9° |
| 2026-05-04 13:15 | 52.69789 | 5.89196 | 5524 ft | 183 kts | 1° |
| 2026-05-04 13:15 | 52.70978 | 5.88910 | 5507 ft | 156 kts | 349° |
| 2026-05-04 13:15 | 52.72006 | 5.88790 | 5812 ft | 141 kts | 0° |
| 2026-05-04 13:15 | 52.72955 | 5.88959 | 5956 ft | 139 kts | 5° |
| 2026-05-04 13:16 | 52.73924 | 5.89172 | 5913 ft | 142 kts | 6° |
| 2026-05-04 13:16 | 52.74898 | 5.89373 | 5926 ft | 140 kts | 4° |
| 2026-05-04 13:16 | 52.75861 | 5.89544 | 6026 ft | 138 kts | 4° |
| 2026-05-04 13:16 | 52.76826 | 5.89709 | 6105 ft | 141 kts | 1° |
| 2026-05-04 13:17 | 52.77836 | 5.89744 | 6106 ft | 151 kts | 1° |
| 2026-05-04 13:17 | 52.78877 | 5.89952 | 6187 ft | 151 kts | 4° |
| 2026-05-04 13:17 | 52.79899 | 5.90214 | 6145 ft | 149 kts | 8° |
| 2026-05-04 13:17 | 52.80795 | 5.91114 | 5951 ft | 157 kts | 47° |
| 2026-05-04 13:18 | 52.81464 | 5.92466 | 5995 ft | 149 kts | 50° |
| 2026-05-04 13:18 | 52.82104 | 5.93808 | 5965 ft | 148 kts | 50° |
| 2026-05-04 13:18 | 52.82741 | 5.95122 | 6000 ft | 142 kts | 50° |
| 2026-05-04 13:18 | 52.83352 | 5.96402 | 5998 ft | 142 kts | 50° |
| 2026-05-04 13:19 | 52.84013 | 5.97596 | 5977 ft | 140 kts | 26° |
| 2026-05-04 13:19 | 52.84696 | 5.97017 | 5913 ft | 132 kts | 260° |
| 2026-05-04 13:19 | 52.83994 | 5.96744 | 5918 ft | 136 kts | 124° |
| 2026-05-04 13:19 | 52.84187 | 5.98188 | 5927 ft | 135 kts | 56° |
| 2026-05-04 13:20 | 52.84725 | 5.99451 | 5933 ft | 135 kts | 52° |
| 2026-05-04 13:20 | 52.85292 | 6.00688 | 5955 ft | 135 kts | 51° |
| 2026-05-04 13:20 | 52.85867 | 6.01905 | 5966 ft | 135 kts | 51° |
| 2026-05-04 13:20 | 52.86431 | 6.03161 | 5971 ft | 137 kts | 65° |
| 2026-05-04 13:21 | 52.86049 | 6.04209 | 5923 ft | 122 kts | 197° |
| 2026-05-04 13:21 | 52.86082 | 6.03240 | 5946 ft | 128 kts | 348° |
| 2026-05-04 13:21 | 52.86788 | 6.04133 | 5926 ft | 137 kts | 49° |
| 2026-05-04 13:21 | 52.87380 | 6.05378 | 5921 ft | 138 kts | 51° |
| 2026-05-04 13:22 | 52.87973 | 6.06592 | 5967 ft | 135 kts | 51° |
| 2026-05-04 13:22 | 52.88542 | 6.07803 | 5990 ft | 134 kts | 51° |
| 2026-05-04 13:22 | 52.89099 | 6.09076 | 5981 ft | 138 kts | 58° |
| 2026-05-04 13:22 | 52.89559 | 6.10480 | 5915 ft | 143 kts | 62° |
| 2026-05-04 13:23 | 52.90011 | 6.11916 | 5986 ft | 138 kts | 61° |
| 2026-05-04 13:23 | 52.90476 | 6.13317 | 5984 ft | 139 kts | 61° |
| 2026-05-04 13:23 | 52.90910 | 6.14741 | 6021 ft | 137 kts | 65° |
| 2026-05-04 13:23 | 52.91366 | 6.16147 | 5999 ft | 140 kts | 49° |
| 2026-05-04 13:24 | 52.92049 | 6.17284 | 6036 ft | 138 kts | 43° |
| 2026-05-04 13:24 | 52.92698 | 6.18470 | 6026 ft | 139 kts | 46° |
| 2026-05-04 13:24 | 52.93338 | 6.19623 | 5992 ft | 135 kts | 45° |
| 2026-05-04 13:25 | 52.94548 | 6.22054 | 5722 ft | 136 kts | 51° |
| 2026-05-04 13:25 | 52.95145 | 6.23263 | 5556 ft | 136 kts | 49° |
| 2026-05-04 13:25 | 52.95741 | 6.24478 | 5390 ft | 135 kts | 52° |
| 2026-05-04 13:25 | 52.96324 | 6.25695 | 5199 ft | 135 kts | 50° |
| 2026-05-04 13:26 | 52.96897 | 6.26930 | 5019 ft | 134 kts | 50° |
| 2026-05-04 13:26 | 52.97500 | 6.28103 | 4838 ft | 134 kts | 48° |
| 2026-05-04 13:26 | 52.98105 | 6.29275 | 4639 ft | 133 kts | 49° |
| 2026-05-04 13:26 | 52.98699 | 6.30443 | 4443 ft | 133 kts | 51° |
| 2026-05-04 13:27 | 52.99271 | 6.31651 | 4254 ft | 133 kts | 51° |
| 2026-05-04 13:27 | 52.99834 | 6.32854 | 4072 ft | 132 kts | 51° |
| 2026-05-04 13:27 | 53.00390 | 6.34062 | 3899 ft | 130 kts | 52° |
| 2026-05-04 13:27 | 53.00927 | 6.35271 | 3706 ft | 130 kts | 53° |
| 2026-05-04 13:28 | 53.01460 | 6.36470 | 3549 ft | 128 kts | 50° |
| 2026-05-04 13:28 | 53.02040 | 6.37625 | 3337 ft | 131 kts | 48° |
| 2026-05-04 13:28 | 53.02648 | 6.38732 | 3179 ft | 130 kts | 47° |
| 2026-05-04 13:28 | 53.03256 | 6.39812 | 3061 ft | 126 kts | 39° |
| 2026-05-04 13:29 | 53.04042 | 6.40201 | 2998 ft | 116 kts | 351° |
| 2026-05-04 13:29 | 53.04696 | 6.39553 | 3006 ft | 113 kts | 301° |
| 2026-05-04 13:29 | 53.04796 | 6.38295 | 2933 ft | 120 kts | 247° |
| 2026-05-04 13:29 | 53.04306 | 6.37142 | 2901 ft | 121 kts | 232° |
| 2026-05-04 13:30 | 53.03797 | 6.36073 | 2953 ft | 116 kts | 233° |
| 2026-05-04 13:30 | 53.03305 | 6.35007 | 2959 ft | 116 kts | 232° |
| 2026-05-04 13:30 | 53.02808 | 6.33947 | 2881 ft | 118 kts | 232° |
| 2026-05-04 13:30 | 53.02290 | 6.32889 | 2802 ft | 117 kts | 222° |
| 2026-05-04 13:31 | 53.01536 | 6.32595 | 2727 ft | 120 kts | 167° |
| 2026-05-04 13:31 | 53.00880 | 6.33492 | 2521 ft | 130 kts | 114° |
| 2026-05-04 13:31 | 53.00864 | 6.34933 | 2439 ft | 127 kts | 67° |
| 2026-05-04 13:31 | 53.01366 | 6.36121 | 2347 ft | 124 kts | 51° |
| 2026-05-04 13:32 | 53.01910 | 6.37205 | 2233 ft | 122 kts | 50° |
| 2026-05-04 13:32 | 53.02448 | 6.38283 | 2099 ft | 121 kts | 49° |
| 2026-05-04 13:32 | 53.02998 | 6.39331 | 1994 ft | 120 kts | 47° |
| 2026-05-04 13:32 | 53.03539 | 6.40352 | 1985 ft | 118 kts | 49° |
| 2026-05-04 13:33 | 53.04045 | 6.41384 | 1989 ft | 110 kts | 49° |
| 2026-05-04 13:33 | 53.04502 | 6.42364 | 1982 ft | 106 kts | 51° |
| 2026-05-04 13:33 | 53.04935 | 6.43324 | 1929 ft | 103 kts | 51° |
| 2026-05-04 13:33 | 53.05364 | 6.44249 | 1786 ft | 101 kts | 49° |
| 2026-05-04 13:34 | 53.05827 | 6.45134 | 1658 ft | 101 kts | 45° |
| 2026-05-04 13:34 | 53.06305 | 6.45994 | 1533 ft | 101 kts | 46° |
| 2026-05-04 13:34 | 53.06787 | 6.46871 | 1398 ft | 101 kts | 44° |
| 2026-05-04 13:34 | 53.07270 | 6.47712 | 1270 ft | 102 kts | 46° |
| 2026-05-04 13:35 | 53.07679 | 6.48674 | 1171 ft | 101 kts | 55° |
| 2026-05-04 13:35 | 53.08463 | 6.50605 | 965 ft | 98 kts | 49° |
| 2026-05-04 13:35 | 53.08902 | 6.51448 | 824 ft | 97 kts | 46° |
| 2026-05-04 13:36 | 53.09304 | 6.52315 | 697 ft | 90 kts | 50° |
| 2026-05-04 13:36 | 53.09632 | 6.53059 | 581 ft | 78 kts | 50° |
| 2026-05-04 13:36 | 53.09996 | 6.53766 | 474 ft | 81 kts | 45° |
| 2026-05-04 13:36 | 53.10363 | 6.54525 | 334 ft | 87 kts | 50° |
| 2026-05-04 13:37 | 53.10737 | 6.55288 | 199 ft | 84 kts | 45° |
| 2026-05-04 13:37 | 53.11080 | 6.56029 | 82 ft | 80 kts | 50° |
| 2026-05-04 13:37 | 53.11394 | 6.56700 | 18 ft | 57 kts | 46° |
| 2026-05-04 13:37 | 53.11533 | 6.56992 | 21 ft | 51 kts | 51° |
| 2026-05-04 13:38 | 53.11928 | 6.57843 | 90 ft | 82 kts | 49° |
| 2026-05-04 13:38 | 53.12294 | 6.58600 | 303 ft | 84 kts | 48° |
| 2026-05-04 13:38 | 53.12701 | 6.59250 | 345 ft | 81 kts | 44° |
| 2026-05-04 13:38 | 53.13108 | 6.59893 | 390 ft | 81 kts | 46° |
| 2026-05-04 13:39 | 53.13501 | 6.60573 | 514 ft | 79 kts | 46° |
| 2026-05-04 13:39 | 53.13874 | 6.61229 | 472 ft | 79 kts | 54° |
| 2026-05-04 13:39 | 53.14187 | 6.61967 | 473 ft | 81 kts | 58° |
| 2026-05-04 13:39 | 53.14457 | 6.62693 | 581 ft | 74 kts | 60° |
| 2026-05-04 13:40 | 53.14764 | 6.63385 | 559 ft | 77 kts | 65° |
| 2026-05-04 13:40 | 53.15127 | 6.64140 | 562 ft | 86 kts | 49° |
| 2026-05-04 13:40 | 53.15494 | 6.64786 | 707 ft | 77 kts | 50° |
| 2026-05-04 13:40 | 53.15891 | 6.65426 | 908 ft | 79 kts | 33° |
| 2026-05-04 13:41 | 53.16286 | 6.66092 | 1131 ft | 82 kts | 47° |
| 2026-05-04 13:41 | 53.16647 | 6.66910 | 1301 ft | 87 kts | 51° |
| 2026-05-04 13:41 | 53.16997 | 6.67702 | 1586 ft | 87 kts | 52° |
| 2026-05-04 13:42 | 53.17639 | 6.69448 | 2043 ft | 97 kts | 57° |
| 2026-05-04 13:42 | 53.18049 | 6.70526 | 2096 ft | 112 kts | 59° |
| 2026-05-04 13:42 | 53.18485 | 6.71669 | 2133 ft | 128 kts | 53° |
| 2026-05-04 13:42 | 53.19034 | 6.72943 | 2061 ft | 142 kts | 56° |
| 2026-05-04 13:43 | 53.19557 | 6.74281 | 2019 ft | 139 kts | 56° |
| 2026-05-04 13:43 | 53.20087 | 6.75655 | 1910 ft | 139 kts | 56° |
| 2026-05-04 13:43 | 53.20565 | 6.76975 | 1981 ft | 127 kts | 57° |
| 2026-05-04 13:43 | 53.21109 | 6.78149 | 1931 ft | 128 kts | 50° |
| 2026-05-04 13:44 | 53.21678 | 6.79301 | 1838 ft | 131 kts | 49° |
| 2026-05-04 13:44 | 53.22273 | 6.80482 | 1766 ft | 130 kts | 49° |
| 2026-05-04 13:44 | 53.22828 | 6.81565 | 1907 ft | 117 kts | 47° |
| 2026-05-04 13:44 | 53.23353 | 6.82578 | 1960 ft | 113 kts | 49° |
| 2026-05-04 13:45 | 53.23827 | 6.83640 | 1981 ft | 113 kts | 53° |
| 2026-05-04 13:45 | 53.24350 | 6.84636 | 1911 ft | 120 kts | 25° |
| 2026-05-04 13:45 | 53.25141 | 6.84613 | 1992 ft | 115 kts | 334° |
| 2026-05-04 13:45 | 53.25560 | 6.83536 | 2026 ft | 116 kts | 276° |
| 2026-05-04 13:46 | 53.25234 | 6.82312 | 1974 ft | 123 kts | 220° |
| 2026-05-04 13:46 | 53.24499 | 6.81641 | 1983 ft | 116 kts | 199° |
| 2026-05-04 13:46 | 53.23775 | 6.81170 | 1972 ft | 111 kts | 199° |
| 2026-05-04 13:46 | 53.23180 | 6.80367 | 1994 ft | 111 kts | 232° |
| 2026-05-04 13:47 | 53.22733 | 6.79274 | 1974 ft | 116 kts | 234° |
| 2026-05-04 13:47 | 53.22248 | 6.78194 | 1994 ft | 116 kts | 231° |
| 2026-05-04 13:47 | 53.21735 | 6.77127 | 1979 ft | 119 kts | 228° |
| 2026-05-04 13:47 | 53.21202 | 6.76082 | 1988 ft | 118 kts | 226° |
| 2026-05-04 13:48 | 53.20639 | 6.75071 | 1982 ft | 119 kts | 225° |
| 2026-05-04 13:48 | 53.20086 | 6.74042 | 1961 ft | 119 kts | 228° |
| 2026-05-04 13:48 | 53.19588 | 6.72985 | 1993 ft | 114 kts | 231° |
| 2026-05-04 13:48 | 53.19110 | 6.71917 | 1975 ft | 115 kts | 230° |
| 2026-05-04 13:49 | 53.18606 | 6.70894 | 1870 ft | 114 kts | 226° |
| 2026-05-04 13:49 | 53.18049 | 6.69914 | 1712 ft | 118 kts | 223° |
| 2026-05-04 13:49 | 53.17502 | 6.68938 | 1636 ft | 115 kts | 227° |
| 2026-05-04 13:49 | 53.16958 | 6.67920 | 1479 ft | 119 kts | 226° |
| 2026-05-04 13:50 | 53.16377 | 6.66914 | 1319 ft | 121 kts | 223° |
| 2026-05-04 13:50 | 53.15766 | 6.65963 | 1131 ft | 121 kts | 220° |
| 2026-05-04 13:50 | 53.15362 | 6.65344 | 1053 ft | 117 kts | 223° |
| 2026-05-04 13:50 | 53.14843 | 6.64329 | 882 ft | 115 kts | 233° |
| 2026-05-04 13:51 | 53.14378 | 6.63201 | 718 ft | 120 kts | 234° |
| 2026-05-04 13:51 | 53.13854 | 6.62175 | 678 ft | 118 kts | 208° |
| 2026-05-04 13:51 | 53.13090 | 6.61716 | 640 ft | 115 kts | 191° |
| 2026-05-04 13:51 | 53.12348 | 6.61322 | 627 ft | 112 kts | 189° |
| 2026-05-04 13:52 | 53.11088 | 6.59836 | 676 ft | 115 kts | 224° |
| 2026-05-04 13:52 | 53.10533 | 6.58854 | 670 ft | 118 kts | 225° |
| 2026-05-04 13:52 | 53.10015 | 6.57771 | 686 ft | 119 kts | 236° |
| 2026-05-04 13:53 | 53.09534 | 6.56684 | 764 ft | 114 kts | 244° |
| 2026-05-04 13:53 | 53.09526 | 6.55559 | 727 ft | 96 kts | 306° |
| 2026-05-04 13:53 | 53.09944 | 6.54696 | 595 ft | 97 kts | 328° |
| 2026-05-04 13:54 | 53.10901 | 6.55579 | 153 ft | 98 kts | 53° |
| 2026-05-04 13:54 | 53.11258 | 6.56406 | 26 ft | 74 kts | 45° |
| 2026-05-04 13:54 | 53.11822 | 6.57598 | 51 ft | 81 kts | 52° |
| 2026-05-04 13:55 | 53.12184 | 6.58337 | 268 ft | 81 kts | 49° |
| 2026-05-04 13:55 | 53.12793 | 6.59818 | 433 ft | 80 kts | 50° |
| 2026-05-04 13:55 | 53.13077 | 6.60590 | 490 ft | 80 kts | 45° |
| 2026-05-04 13:56 | 53.13411 | 6.61340 | 555 ft | 83 kts | 50° |
| 2026-05-04 13:56 | 53.13768 | 6.62113 | 745 ft | 85 kts | 43° |
| 2026-05-04 13:56 | 53.14819 | 6.62157 | 1237 ft | 87 kts | 323° |
| 2026-05-04 13:57 | 53.15103 | 6.61222 | 1431 ft | 98 kts | 282° |
| 2026-05-04 13:57 | 53.15043 | 6.60032 | 1613 ft | 107 kts | 252° |
| 2026-05-04 13:58 | 53.14262 | 6.56340 | 2001 ft | 130 kts | 253° |
| 2026-05-04 13:58 | 53.13737 | 6.53388 | 1966 ft | 133 kts | 255° |
| 2026-05-04 13:58 | 53.13409 | 6.51963 | 1956 ft | 133 kts | 242° |
| 2026-05-04 13:59 | 53.12998 | 6.50562 | 1908 ft | 135 kts | 248° |
| 2026-05-04 13:59 | 53.12663 | 6.49140 | 1996 ft | 128 kts | 251° |
| 2026-05-04 13:59 | 53.11844 | 6.46467 | 1937 ft | 133 kts | 242° |
| 2026-05-04 14:00 | 53.11393 | 6.45126 | 1950 ft | 133 kts | 238° |
| 2026-05-04 14:00 | 53.10264 | 6.42644 | 1976 ft | 133 kts | 233° |
| 2026-05-04 14:00 | 53.09685 | 6.41443 | 1998 ft | 132 kts | 233° |
| 2026-05-04 14:01 | 53.09124 | 6.40229 | 1990 ft | 133 kts | 232° |
| 2026-05-04 14:01 | 53.08526 | 6.39054 | 1972 ft | 134 kts | 230° |
| 2026-05-04 14:01 | 53.07373 | 6.36669 | 1885 ft | 127 kts | 234° |
| 2026-05-04 14:02 | 53.06857 | 6.35476 | 1834 ft | 125 kts | 230° |
| 2026-05-04 14:02 | 53.06231 | 6.34548 | 1854 ft | 124 kts | 196° |
| 2026-05-04 14:02 | 53.05431 | 6.34726 | 1892 ft | 122 kts | 137° |
| 2026-05-04 14:02 | 53.04854 | 6.35761 | 1912 ft | 117 kts | 125° |
| 2026-05-04 14:03 | 53.04362 | 6.36810 | 1946 ft | 116 kts | 122° |
| 2026-05-04 14:03 | 53.03896 | 6.37920 | 1955 ft | 118 kts | 118° |
| 2026-05-04 14:03 | 53.03712 | 6.39219 | 1917 ft | 116 kts | 68° |
| 2026-05-04 14:03 | 53.03910 | 6.40441 | 2015 ft | 107 kts | 59° |
| 2026-05-04 14:04 | 53.04640 | 6.42644 | 1944 ft | 110 kts | 47° |
| 2026-05-04 14:04 | 53.05131 | 6.43601 | 1794 ft | 109 kts | 44° |
| 2026-05-04 14:04 | 53.05649 | 6.44494 | 1623 ft | 107 kts | 41° |
| 2026-05-04 14:05 | 53.06606 | 6.46330 | 1397 ft | 102 kts | 50° |
| 2026-05-04 14:05 | 53.07004 | 6.47295 | 1273 ft | 102 kts | 46° |
| 2026-05-04 14:05 | 53.07445 | 6.48238 | 1120 ft | 105 kts | 45° |
| 2026-05-04 14:06 | 53.07893 | 6.49206 | 1024 ft | 103 kts | 49° |
| 2026-05-04 14:06 | 53.08300 | 6.50165 | 966 ft | 101 kts | 47° |
| 2026-05-04 14:06 | 53.08722 | 6.51094 | 861 ft | 99 kts | 44° |
| 2026-05-04 14:06 | 53.09154 | 6.51982 | 730 ft | 98 kts | 44° |
| 2026-05-04 14:07 | 53.09568 | 6.52867 | 603 ft | 98 kts | 43° |
| 2026-05-04 14:07 | 53.10013 | 6.53768 | 441 ft | 102 kts | 46° |
| 2026-05-04 14:07 | 53.10409 | 6.54633 | 319 ft | 88 kts | 44° |
| 2026-05-04 14:07 | 53.10784 | 6.55412 | 258 ft | 80 kts | 48° |
| 2026-05-04 14:08 | 53.11076 | 6.56159 | 295 ft | 79 kts | 48° |
| 2026-05-04 14:08 | 53.11386 | 6.56889 | 385 ft | 77 kts | 49° |
| 2026-05-04 14:08 | 53.11708 | 6.57578 | 470 ft | 79 kts | 49° |
| 2026-05-04 14:08 | 53.12030 | 6.58307 | 559 ft | 78 kts | 50° |
| 2026-05-04 14:09 | 53.12546 | 6.59861 | 700 ft | 82 kts | 66° |
| 2026-05-04 14:09 | 53.12695 | 6.60714 | 867 ft | 72 kts | 62° |
| 2026-05-04 14:10 | 53.12781 | 6.62459 | 907 ft | 81 kts | 79° |
| 2026-05-04 14:10 | 53.12800 | 6.63202 | 999 ft | 89 kts | 81° |
| 2026-05-04 14:11 | 53.12819 | 6.63898 | 1139 ft | 92 kts | 88° |
| 2026-05-04 14:12 | 53.12522 | 6.64866 | 1285 ft | 99 kts | 130° |
| 2026-05-04 14:12 | 53.11956 | 6.65471 | 1461 ft | 99 kts | 152° |
| 2026-05-04 14:12 | 53.10503 | 6.65592 | 1651 ft | 110 kts | 207° |
| 2026-05-04 14:13 | 53.09963 | 6.64742 | 1823 ft | 106 kts | 239° |
| 2026-05-04 14:13 | 53.09715 | 6.63617 | 1949 ft | 106 kts | 260° |
| 2026-05-04 14:13 | 53.09512 | 6.62415 | 2042 ft | 106 kts | 251° |
| 2026-05-04 14:13 | 53.09257 | 6.61338 | 2238 ft | 99 kts | 247° |
| 2026-05-04 14:14 | 53.08927 | 6.60303 | 2342 ft | 101 kts | 241° |
| 2026-05-04 14:14 | 53.07991 | 6.58625 | 2600 ft | 98 kts | 220° |